EGLL Airport Information

Runway Information
Runway 09L Length 12799 ft width 164 ft
Elevation 79 ft Threshold 1007 ft Heading 90
Runway 27R Length 12799 ft Width 164 ft
Elevation 78 ft Threshold 0 ft Heading 270
Runway 09R Length 12001 ft width 148 ft
Elevation 75 ft Threshold 1013 ft Heading 90
Runway 27L Length 12001 ft Width 148 ft
Elevation 77 ft Threshold 0 ft Heading 270
Airport Frequencies
Type APP Name APP Frequency 119.725 MHZ
Type ATIS Name ATIS Frequency 128.075 MHZ
Type CLD Name CLNC DEL Frequency 121.975 MHZ
Type GND Name GND Frequency 121.7 MHZ
Type TWR Name TWR Frequency 118.475 MHZ
Airport Navaids
Type VOR-DME Name London Frequency 113600 KHZ
Airport Weather Information & NOTAM
ADDS - METARS form results

(0635 UTC 22 April 2018)
 
METAR text: EGLL 220620Z AUTO VRB05KT 5000 HZ NCD 15/13 Q1010
Conditions at: EGLL (LONDON/HEATHROW , GB) observed 0620 UTC 22 April 2018
Temperature: 15.0°C (59°F)
Dewpoint: 13.0°C (55°F) [RH = 88%]
Pressure (altimeter): 29.82 inches Hg (1010.0 mb)
Winds: variable direction winds at 6 MPH (5 knots; 2.6 m/s)
Visibility: 3 miles (5 km)
Ceiling: at least 12,000 feet AGL
Clouds: sky clear below 12,000 feet AGL
Weather: HZ  (haze)

METAR text: EGLL 220550Z AUTO 15005KT 110V190 2600 BR NCD 14/13 Q1010 BECMG 5000
Conditions at: EGLL (LONDON/HEATHROW , GB) observed 0550 UTC 22 April 2018
Temperature: 14.0°C (57°F)
Dewpoint: 13.0°C (55°F) [RH = 94%]
Pressure (altimeter): 29.82 inches Hg (1010.0 mb)
Winds: from the SSE (150 degrees) at 6 MPH (5 knots; 2.6 m/s)
Visibility: 1.62 miles (2.61 km)
Ceiling: at least 12,000 feet AGL
Clouds: sky clear below 12,000 feet AGL
Weather: BR  (mist)